createdAt,value
2023-05-21T00:00:32.439Z,17.79
2023-05-21T00:02:59.213Z,17.79
2023-05-21T00:05:25.992Z,17.78
2023-05-21T00:07:52.580Z,17.77
2023-05-21T00:10:19.291Z,17.76
2023-05-21T00:12:45.911Z,17.73
2023-05-21T00:15:12.878Z,17.71
2023-05-21T00:17:39.408Z,17.69
2023-05-21T00:20:06.578Z,17.67
2023-05-21T00:22:33.298Z,17.63
2023-05-21T00:24:59.889Z,17.60
2023-05-21T00:27:26.387Z,17.58
2023-05-21T00:29:52.898Z,17.55
2023-05-21T00:32:19.394Z,17.52
2023-05-21T00:34:45.892Z,17.49
2023-05-21T00:37:12.373Z,17.45
2023-05-21T00:39:38.913Z,17.42
2023-05-21T00:42:05.450Z,17.38
2023-05-21T00:44:32.164Z,17.36
2023-05-21T00:46:58.729Z,17.32
2023-05-21T00:49:25.295Z,17.28
2023-05-21T00:51:51.858Z,17.25
2023-05-21T00:54:18.797Z,17.23
2023-05-21T00:56:46.737Z,17.20
2023-05-21T00:59:15.924Z,17.15
2023-05-21T01:01:45.918Z,17.09
2023-05-21T01:04:12.864Z,17.05
2023-05-21T01:06:39.420Z,17.01
2023-05-21T01:09:06.006Z,16.98
2023-05-21T01:11:43.491Z,16.93
2023-05-21T01:14:12.088Z,16.90
2023-05-21T01:16:40.758Z,16.87
2023-05-21T01:19:10.419Z,16.86
2023-05-21T01:21:41.308Z,16.83
2023-05-21T01:24:07.847Z,16.79
2023-05-21T01:26:34.493Z,16.77
2023-05-21T01:29:00.982Z,16.74
2023-05-21T01:31:34.158Z,16.70
2023-05-21T01:34:05.686Z,16.68
2023-05-21T01:36:34.737Z,16.63
2023-05-21T01:39:07.832Z,16.59
2023-05-21T01:41:38.541Z,16.57
2023-05-21T01:44:08.581Z,16.54
2023-05-21T01:46:36.068Z,16.51
2023-05-21T01:49:05.706Z,16.48
2023-05-21T01:51:33.294Z,16.46
2023-05-21T01:53:59.834Z,16.44
2023-05-21T01:56:26.364Z,16.43
2023-05-21T01:58:52.880Z,16.39
2023-05-21T02:01:19.384Z,16.39
2023-05-21T02:03:45.971Z,16.37
2023-05-21T02:06:12.574Z,16.35
2023-05-21T02:08:39.072Z,16.35
2023-05-21T02:11:05.622Z,16.34
2023-05-21T02:13:32.118Z,16.32
2023-05-21T02:15:58.779Z,16.29
2023-05-21T02:18:25.305Z,16.28
2023-05-21T02:20:51.822Z,16.26
2023-05-21T02:23:18.329Z,16.25
2023-05-21T02:25:44.841Z,16.23
2023-05-21T02:28:11.413Z,16.22
2023-05-21T02:30:38.051Z,16.20
2023-05-21T02:33:04.661Z,16.19
2023-05-21T02:35:31.289Z,16.16
2023-05-21T02:37:57.852Z,16.16
2023-05-21T02:40:24.430Z,16.14
2023-05-21T02:42:50.937Z,16.12
2023-05-21T02:45:17.425Z,16.09
2023-05-21T02:47:44.014Z,16.05
2023-05-21T02:50:10.627Z,16.02
2023-05-21T02:52:37.129Z,15.99
2023-05-21T02:55:03.885Z,15.97
2023-05-21T02:57:30.428Z,15.95
2023-05-21T02:59:57.083Z,15.95
2023-05-21T03:02:23.855Z,15.94
2023-05-21T03:04:50.583Z,15.93
2023-05-21T03:07:17.692Z,15.93
2023-05-21T03:09:44.737Z,15.93
2023-05-21T03:12:11.705Z,15.93
2023-05-21T03:14:38.921Z,15.93
2023-05-21T03:17:05.651Z,15.92
2023-05-21T03:19:33.275Z,15.92
2023-05-21T03:22:00.586Z,15.92
2023-05-21T03:24:28.271Z,15.92
2023-05-21T03:26:54.787Z,15.92
2023-05-21T03:29:21.318Z,15.92
2023-05-21T03:31:47.963Z,15.94
2023-05-21T03:34:14.603Z,15.96
2023-05-21T03:36:41.147Z,15.97
2023-05-21T03:39:07.659Z,15.98
2023-05-21T03:41:34.216Z,16.01
2023-05-21T03:44:00.738Z,16.03
2023-05-21T03:46:27.390Z,16.06
2023-05-21T03:48:54.101Z,16.10
2023-05-21T03:51:20.748Z,16.13
2023-05-21T03:53:47.296Z,16.17
2023-05-21T03:56:13.844Z,16.21
2023-05-21T03:58:40.389Z,16.27
2023-05-21T04:01:06.887Z,16.33
2023-05-21T04:03:33.623Z,16.41
2023-05-21T04:06:00.316Z,16.48
2023-05-21T04:08:26.906Z,16.56
2023-05-21T04:10:53.481Z,16.64
2023-05-21T04:13:19.992Z,16.72
2023-05-21T04:15:46.587Z,16.80
2023-05-21T04:18:13.640Z,16.87
2023-05-21T04:20:40.112Z,16.93
2023-05-21T04:23:06.648Z,16.99
2023-05-21T04:25:33.425Z,17.04
2023-05-21T04:28:00.251Z,17.09
2023-05-21T04:30:26.797Z,17.14
2023-05-21T04:32:53.362Z,17.20
2023-05-21T04:35:19.964Z,17.25
2023-05-21T04:37:46.763Z,17.30
2023-05-21T04:40:13.680Z,17.34
2023-05-21T04:42:40.212Z,17.39
2023-05-21T04:45:07.217Z,17.43
2023-05-21T04:47:33.823Z,17.46
2023-05-21T04:50:00.362Z,17.53
2023-05-21T04:52:26.861Z,17.58
2023-05-21T04:54:53.329Z,17.63
2023-05-21T04:57:19.940Z,17.68
2023-05-21T04:59:46.408Z,17.74
2023-05-21T05:02:12.928Z,17.79
2023-05-21T05:04:39.454Z,17.85
2023-05-21T05:07:06.004Z,17.92
2023-05-21T05:09:32.566Z,17.97
2023-05-21T05:11:59.131Z,18.02
2023-05-21T05:14:25.613Z,18.08
2023-05-21T05:16:52.251Z,18.14
2023-05-21T05:19:18.973Z,18.20
2023-05-21T05:21:45.505Z,18.27
2023-05-21T05:24:12.115Z,18.34
2023-05-21T05:26:38.614Z,18.41
2023-05-21T05:29:05.103Z,18.47
2023-05-21T05:31:31.705Z,18.54
2023-05-21T05:33:58.209Z,18.61
2023-05-21T05:36:24.738Z,18.69
2023-05-21T05:38:51.272Z,18.76
2023-05-21T05:41:17.808Z,18.81
2023-05-21T05:43:44.340Z,18.89
2023-05-21T05:46:10.888Z,18.98
2023-05-21T05:48:37.412Z,19.06
2023-05-21T05:51:04.092Z,19.14
2023-05-21T05:53:30.628Z,19.21
2023-05-21T05:55:57.146Z,19.28
2023-05-21T05:58:23.622Z,19.33
2023-05-21T06:00:50.185Z,19.40
2023-05-21T06:03:16.800Z,19.46
2023-05-21T06:05:43.671Z,19.52
2023-05-21T06:08:10.209Z,19.58
2023-05-21T06:10:36.772Z,19.66
2023-05-21T06:13:03.532Z,19.72
2023-05-21T06:15:30.298Z,19.78
2023-05-21T06:17:56.857Z,19.86
2023-05-21T06:20:23.682Z,19.92
2023-05-21T06:22:50.283Z,19.98
2023-05-21T06:25:16.805Z,20.05
2023-05-21T06:27:43.356Z,20.12
2023-05-21T06:30:10.022Z,20.18
2023-05-21T06:32:36.596Z,20.25
2023-05-21T06:35:03.399Z,20.31
2023-05-21T06:37:29.917Z,20.36
2023-05-21T06:39:56.442Z,20.43
2023-05-21T06:42:23.008Z,20.48
2023-05-21T06:44:49.543Z,20.55
2023-05-21T06:47:16.113Z,20.61
2023-05-21T06:49:42.703Z,20.67
2023-05-21T06:52:09.219Z,20.74
2023-05-21T06:54:35.803Z,20.81
2023-05-21T06:57:02.321Z,20.89
2023-05-21T06:59:28.885Z,20.98
2023-05-21T07:01:55.416Z,21.03
2023-05-21T07:04:22.000Z,21.12
2023-05-21T07:06:48.536Z,21.19
2023-05-21T07:09:15.051Z,21.27
2023-05-21T07:11:41.531Z,21.34
2023-05-21T07:14:08.912Z,21.41
2023-05-21T07:16:35.465Z,21.47
2023-05-21T07:19:02.083Z,21.54
2023-05-21T07:21:28.697Z,21.61
2023-05-21T07:23:55.224Z,21.69
2023-05-21T07:26:21.723Z,21.78
2023-05-21T07:28:48.284Z,21.87
2023-05-21T07:31:14.815Z,21.94
2023-05-21T07:33:41.393Z,22.00
2023-05-21T07:36:07.972Z,22.05
2023-05-21T07:38:34.485Z,22.09
2023-05-21T07:41:01.059Z,22.12
2023-05-21T07:43:27.603Z,22.16
2023-05-21T07:45:54.199Z,22.21
2023-05-21T07:48:20.726Z,22.27
2023-05-21T07:50:47.233Z,22.33
2023-05-21T07:53:13.951Z,22.37
2023-05-21T07:55:40.578Z,22.43
2023-05-21T07:58:07.148Z,22.50
2023-05-21T08:00:42.859Z,22.57
2023-05-21T08:03:09.455Z,22.66
2023-05-21T08:05:36.208Z,22.72
2023-05-21T08:08:02.911Z,22.80
2023-05-21T08:10:29.524Z,22.86
2023-05-21T08:12:56.095Z,22.93
2023-05-21T08:15:22.652Z,23.00
2023-05-21T08:17:49.205Z,23.09
2023-05-21T08:20:15.766Z,23.17
2023-05-21T08:22:42.287Z,23.26
2023-05-21T08:25:09.187Z,23.35
2023-05-21T08:27:35.703Z,23.41
2023-05-21T08:30:02.253Z,23.48
2023-05-21T08:32:28.911Z,23.55
2023-05-21T08:34:55.450Z,23.63
2023-05-21T08:37:21.927Z,23.68
2023-05-21T08:39:48.392Z,23.73
2023-05-21T08:42:39.354Z,23.78
2023-05-21T08:45:06.529Z,23.85
2023-05-21T08:47:35.935Z,23.90
2023-05-21T08:50:04.945Z,23.95
2023-05-21T08:52:34.922Z,23.99
2023-05-21T08:55:03.787Z,24.06
2023-05-21T08:57:31.338Z,24.12
2023-05-21T08:59:58.978Z,24.19
2023-05-21T09:02:25.806Z,24.26
2023-05-21T09:04:55.898Z,24.31
2023-05-21T09:07:26.196Z,24.36
2023-05-21T09:09:58.057Z,24.43
2023-05-21T09:12:25.492Z,24.50
2023-05-21T09:14:52.323Z,24.58
2023-05-21T09:17:19.492Z,24.65
2023-05-21T09:20:11.060Z,24.71
2023-05-21T09:22:45.909Z,24.77
2023-05-21T09:25:17.260Z,24.82
2023-05-21T09:27:43.834Z,24.90
2023-05-21T09:30:12.509Z,24.96
2023-05-21T09:32:40.722Z,25.00
2023-05-21T09:35:12.584Z,25.07
2023-05-21T09:37:40.072Z,25.15
2023-05-21T09:40:17.434Z,25.22
2023-05-21T09:42:47.917Z,25.29
2023-05-21T09:45:27.410Z,25.32
2023-05-21T09:47:55.407Z,25.37
2023-05-21T09:50:24.417Z,25.42
2023-05-21T09:52:51.835Z,25.48
2023-05-21T09:55:22.245Z,25.56
2023-05-21T09:57:51.036Z,25.63
2023-05-21T10:00:25.364Z,25.70
2023-05-21T10:02:56.528Z,25.75
2023-05-21T10:05:28.765Z,25.80
2023-05-21T10:08:04.244Z,25.86
2023-05-21T10:10:31.962Z,25.91
2023-05-21T10:13:04.549Z,25.95
2023-05-21T10:15:34.302Z,25.99
2023-05-21T10:18:01.809Z,26.07
2023-05-21T10:20:29.321Z,26.14
2023-05-21T10:22:56.881Z,26.21
2023-05-21T10:25:25.314Z,26.27
2023-05-21T10:27:55.298Z,26.33
2023-05-21T10:30:23.340Z,26.38
2023-05-21T10:32:50.546Z,26.43
2023-05-21T10:35:17.966Z,26.51
2023-05-21T10:37:45.890Z,26.57
2023-05-21T10:40:13.277Z,26.61
2023-05-21T10:42:45.445Z,26.68
2023-05-21T10:45:40.151Z,26.77
2023-05-21T10:48:06.702Z,26.85
2023-05-21T10:51:04.203Z,26.94
2023-05-21T10:53:52.260Z,27.14
2023-05-21T10:56:28.767Z,27.46
2023-05-21T10:59:23.352Z,27.91
2023-05-21T11:01:52.244Z,28.46
2023-05-21T11:04:28.802Z,28.98
2023-05-21T11:06:55.911Z,29.59
2023-05-21T11:09:22.974Z,30.19
2023-05-21T11:11:56.714Z,30.56
2023-05-21T11:14:40.555Z,30.70
2023-05-21T11:17:16.100Z,30.66
2023-05-21T11:19:46.506Z,30.41
2023-05-21T11:22:21.962Z,30.20
2023-05-21T11:24:50.703Z,29.93
2023-05-21T11:27:30.588Z,29.63
2023-05-21T11:29:57.464Z,29.37
2023-05-21T11:32:23.991Z,29.19
2023-05-21T11:34:50.655Z,29.06
2023-05-21T11:37:17.275Z,28.94
2023-05-21T11:39:48.164Z,28.83
2023-05-21T11:42:28.365Z,28.73
2023-05-21T11:44:56.836Z,28.61
2023-05-21T11:47:24.093Z,28.51
2023-05-21T11:49:50.568Z,28.47
2023-05-21T11:52:17.149Z,28.43
2023-05-21T11:54:46.030Z,28.39
2023-05-21T11:57:13.252Z,28.37
2023-05-21T11:59:39.779Z,28.33
2023-05-21T12:02:06.319Z,28.30
2023-05-21T12:04:34.810Z,28.27
2023-05-21T12:07:04.458Z,28.24
2023-05-21T12:09:30.986Z,28.14
2023-05-21T12:11:57.578Z,28.02
2023-05-21T12:14:24.431Z,27.91
2023-05-21T12:16:51.102Z,27.81
2023-05-21T12:19:18.051Z,27.77
2023-05-21T12:21:45.239Z,27.78
2023-05-21T12:24:11.782Z,27.78
2023-05-21T12:26:38.510Z,27.77
2023-05-21T12:29:05.810Z,27.76
2023-05-21T12:31:32.403Z,27.75
2023-05-21T12:33:58.969Z,27.76
2023-05-21T12:36:30.961Z,27.80
2023-05-21T12:38:58.283Z,27.87
2023-05-21T12:41:24.932Z,27.92
2023-05-21T12:43:51.539Z,27.91
2023-05-21T12:46:18.423Z,27.92
2023-05-21T12:48:55.452Z,27.97
2023-05-21T12:51:21.990Z,28.01
2023-05-21T12:53:48.833Z,28.01
2023-05-21T12:56:15.964Z,27.99
2023-05-21T12:58:43.059Z,27.97
2023-05-21T13:01:11.237Z,27.94
2023-05-21T13:03:38.888Z,27.95
2023-05-21T13:06:09.122Z,28.02
2023-05-21T13:08:35.828Z,28.08
2023-05-21T13:11:03.275Z,28.11
2023-05-21T13:13:30.536Z,28.13
2023-05-21T13:15:57.186Z,28.14
2023-05-21T13:18:23.855Z,28.16
2023-05-21T13:20:50.470Z,28.22
2023-05-21T13:23:17.021Z,28.30
2023-05-21T13:25:43.553Z,28.40
2023-05-21T13:28:10.214Z,28.47
2023-05-21T13:30:36.994Z,28.45
2023-05-21T13:33:04.045Z,28.41
2023-05-21T13:35:30.825Z,28.43
2023-05-21T13:37:57.358Z,28.48
2023-05-21T13:40:24.016Z,28.55
2023-05-21T13:42:50.861Z,28.61
2023-05-21T13:45:19.074Z,28.66
2023-05-21T13:47:47.235Z,28.68
2023-05-21T13:50:15.832Z,28.58
2023-05-21T13:52:42.627Z,28.44
2023-05-21T13:55:09.990Z,28.34
2023-05-21T13:57:36.574Z,28.28
2023-05-21T14:00:04.226Z,28.27
2023-05-21T14:02:30.899Z,28.26
2023-05-21T14:04:57.466Z,28.24
2023-05-21T14:07:23.979Z,28.22
2023-05-21T14:09:50.517Z,28.22
2023-05-21T14:12:17.343Z,28.19
2023-05-21T14:14:44.004Z,28.16
2023-05-21T14:17:10.624Z,28.13
2023-05-21T14:19:37.495Z,28.15
2023-05-21T14:22:04.112Z,28.15
2023-05-21T14:24:30.579Z,28.17
2023-05-21T14:26:57.112Z,28.16
2023-05-21T14:29:23.696Z,28.07
2023-05-21T14:31:50.355Z,27.95
2023-05-21T14:34:17.052Z,27.86
2023-05-21T14:36:43.601Z,27.83
2023-05-21T14:39:10.146Z,27.79
2023-05-21T14:41:39.186Z,27.80
2023-05-21T14:44:05.776Z,27.86
2023-05-21T14:46:32.633Z,27.88
2023-05-21T14:48:59.377Z,27.86
2023-05-21T14:51:25.933Z,27.85
2023-05-21T14:53:52.406Z,27.79
2023-05-21T14:56:18.903Z,27.71
2023-05-21T14:58:45.436Z,27.61
2023-05-21T15:01:12.075Z,27.54
2023-05-21T15:03:38.680Z,27.51
2023-05-21T15:06:05.366Z,27.51
2023-05-21T15:08:31.868Z,27.51
2023-05-21T15:10:58.367Z,27.49
2023-05-21T15:13:25.093Z,27.49
2023-05-21T15:15:51.806Z,27.46
2023-05-21T15:18:18.508Z,27.44
2023-05-21T15:20:45.028Z,27.41
2023-05-21T15:23:17.255Z,27.38
2023-05-21T15:25:45.309Z,27.34
2023-05-21T15:28:12.398Z,27.33
2023-05-21T15:30:39.516Z,27.33
2023-05-21T15:33:06.047Z,27.28
2023-05-21T15:35:32.838Z,27.18
2023-05-21T15:37:59.508Z,27.04
2023-05-21T15:40:27.243Z,26.92
2023-05-21T15:42:54.172Z,26.85
2023-05-21T15:45:21.179Z,26.82
2023-05-21T15:47:47.926Z,26.80
2023-05-21T15:50:14.609Z,26.81
2023-05-21T15:52:42.220Z,26.80
2023-05-21T15:55:09.438Z,26.79
2023-05-21T15:57:36.036Z,26.78
2023-05-21T16:00:02.821Z,26.74
2023-05-21T16:02:29.361Z,26.70
2023-05-21T16:04:55.924Z,26.64
2023-05-21T16:07:23.667Z,26.59
2023-05-21T16:09:50.190Z,26.54
2023-05-21T16:12:17.048Z,26.49
2023-05-21T16:14:43.583Z,26.44
2023-05-21T16:17:10.137Z,26.38
2023-05-21T16:19:36.768Z,26.31
2023-05-21T16:22:03.493Z,26.26
2023-05-21T16:24:30.026Z,26.22
2023-05-21T16:26:56.664Z,26.19
2023-05-21T16:29:23.220Z,26.16
2023-05-21T16:31:49.827Z,26.12
2023-05-21T16:34:16.307Z,26.09
2023-05-21T16:36:42.806Z,26.06
2023-05-21T16:39:09.377Z,26.00
2023-05-21T16:41:35.886Z,25.96
2023-05-21T16:44:02.449Z,25.92
2023-05-21T16:46:29.108Z,25.87
2023-05-21T16:48:55.632Z,25.84
2023-05-21T16:51:22.161Z,25.80
2023-05-21T16:53:48.672Z,25.72
2023-05-21T16:56:15.198Z,25.68
2023-05-21T16:58:41.755Z,25.64
2023-05-21T17:01:08.275Z,25.59
2023-05-21T17:03:35.110Z,25.54
2023-05-21T17:06:01.672Z,25.49
2023-05-21T17:08:28.210Z,25.44
2023-05-21T17:10:55.272Z,25.38
2023-05-21T17:13:23.073Z,25.32
2023-05-21T17:15:53.021Z,25.27
2023-05-21T17:18:19.595Z,25.21
2023-05-21T17:20:46.102Z,25.16
2023-05-21T17:23:12.698Z,25.10
2023-05-21T17:25:40.092Z,25.04
2023-05-21T17:28:06.981Z,25.00
2023-05-21T17:30:33.500Z,24.96
2023-05-21T17:33:00.205Z,24.94
2023-05-21T17:35:26.770Z,24.90
2023-05-21T17:37:53.378Z,24.86
2023-05-21T17:40:19.864Z,24.83
2023-05-21T17:42:46.380Z,24.77
2023-05-21T17:45:12.904Z,24.74
2023-05-21T17:47:39.437Z,24.69
2023-05-21T17:50:06.833Z,24.65
2023-05-21T17:52:33.336Z,24.58
2023-05-21T17:55:00.654Z,24.53
2023-05-21T17:57:27.190Z,24.45
2023-05-21T17:59:53.731Z,24.40
2023-05-21T18:02:20.267Z,24.32
2023-05-21T18:04:46.754Z,24.27
2023-05-21T18:07:13.253Z,24.21
2023-05-21T18:09:39.777Z,24.13
2023-05-21T18:12:07.200Z,24.04
2023-05-21T18:14:33.710Z,23.95
2023-05-21T18:17:00.343Z,23.85
2023-05-21T18:19:27.052Z,23.75
2023-05-21T18:21:53.665Z,23.64
2023-05-21T18:24:20.190Z,23.53
2023-05-21T18:26:46.727Z,23.43
2023-05-21T18:29:13.379Z,23.34
2023-05-21T18:31:40.184Z,23.25
2023-05-21T18:34:06.673Z,23.16
2023-05-21T18:36:33.722Z,23.06
2023-05-21T18:39:00.285Z,22.96
2023-05-21T18:41:26.835Z,22.86
2023-05-21T18:43:53.361Z,22.77
2023-05-21T18:46:20.011Z,22.68
2023-05-21T18:48:46.596Z,22.60
2023-05-21T18:51:13.365Z,22.53
2023-05-21T18:53:39.990Z,22.45
2023-05-21T18:56:06.555Z,22.37
2023-05-21T18:58:35.497Z,22.29
2023-05-21T19:01:01.990Z,22.21
2023-05-21T19:03:28.525Z,22.14
2023-05-21T19:05:55.233Z,22.06
2023-05-21T19:08:21.747Z,21.98
2023-05-21T19:10:48.284Z,21.90
2023-05-21T19:13:14.953Z,21.81
2023-05-21T19:15:41.514Z,21.72
2023-05-21T19:18:08.097Z,21.65
2023-05-21T19:20:34.844Z,21.59
2023-05-21T19:23:01.472Z,21.51
2023-05-21T19:25:27.989Z,21.45
2023-05-21T19:27:54.570Z,21.38
2023-05-21T19:30:21.099Z,21.31
2023-05-21T19:32:47.633Z,21.24
2023-05-21T19:35:15.231Z,21.17
2023-05-21T19:37:41.764Z,21.11
2023-05-21T19:40:09.003Z,21.03
2023-05-21T19:42:35.605Z,20.97
2023-05-21T19:45:02.103Z,20.90
2023-05-21T19:47:28.635Z,20.83
2023-05-21T19:49:55.208Z,20.77
2023-05-21T19:52:21.733Z,20.70
2023-05-21T19:54:48.257Z,20.64
2023-05-21T19:57:14.768Z,20.58
2023-05-21T19:59:41.273Z,20.53
2023-05-21T20:02:11.669Z,20.48
2023-05-21T20:04:38.224Z,20.42
2023-05-21T20:07:05.186Z,20.36
2023-05-21T20:09:31.716Z,20.32
2023-05-21T20:11:58.289Z,20.27
2023-05-21T20:14:24.810Z,20.22
2023-05-21T20:16:51.372Z,20.16
2023-05-21T20:19:17.914Z,20.10
2023-05-21T20:21:44.457Z,20.04
2023-05-21T20:24:10.992Z,19.98
2023-05-21T20:26:37.484Z,19.93
2023-05-21T20:29:03.972Z,19.88
2023-05-21T20:31:30.600Z,19.84
2023-05-21T20:33:57.145Z,19.80
2023-05-21T20:36:23.705Z,19.76
2023-05-21T20:38:50.270Z,19.72
2023-05-21T20:41:16.851Z,19.68
2023-05-21T20:43:43.411Z,19.65
2023-05-21T20:46:09.963Z,19.63
2023-05-21T20:48:36.556Z,19.60
2023-05-21T20:51:03.221Z,19.57
2023-05-21T20:53:29.849Z,19.57
2023-05-21T20:55:56.391Z,19.57
2023-05-21T20:58:23.155Z,19.57
2023-05-21T21:00:49.931Z,19.57
2023-05-21T21:03:17.398Z,19.58
2023-05-21T21:05:44.638Z,19.58
2023-05-21T21:08:11.227Z,19.58
2023-05-21T21:10:38.093Z,19.59
2023-05-21T21:13:04.753Z,19.60
2023-05-21T21:15:31.227Z,19.62
2023-05-21T21:17:57.796Z,19.63
2023-05-21T21:20:24.363Z,19.65
2023-05-21T21:22:50.896Z,19.67
2023-05-21T21:25:17.556Z,19.68
2023-05-21T21:27:44.068Z,19.68
2023-05-21T21:30:11.009Z,19.68
2023-05-21T21:32:37.674Z,19.69
2023-05-21T21:35:04.629Z,19.70
2023-05-21T21:37:31.152Z,19.71
2023-05-21T21:39:57.642Z,19.71
2023-05-21T21:42:24.235Z,19.72
2023-05-21T21:44:50.755Z,19.72
2023-05-21T21:47:17.291Z,19.71
2023-05-21T21:49:43.854Z,19.70
2023-05-21T21:52:11.310Z,19.70
2023-05-21T21:54:37.801Z,19.71
2023-05-21T21:57:04.742Z,19.71
2023-05-21T21:59:31.236Z,19.70
2023-05-21T22:01:58.457Z,19.70
2023-05-21T22:04:25.095Z,19.72
2023-05-21T22:06:51.709Z,19.72
2023-05-21T22:09:18.320Z,19.72
2023-05-21T22:11:44.859Z,19.71
2023-05-21T22:14:11.796Z,19.73
2023-05-21T22:16:38.412Z,19.73
2023-05-21T22:19:05.086Z,19.73
2023-05-21T22:21:31.621Z,19.72
2023-05-21T22:23:58.578Z,19.68
2023-05-21T22:26:25.303Z,19.64
2023-05-21T22:28:51.876Z,19.60
2023-05-21T22:31:18.608Z,19.56
2023-05-21T22:33:45.141Z,19.52
2023-05-21T22:36:11.672Z,19.48
2023-05-21T22:38:38.255Z,19.44
2023-05-21T22:41:04.842Z,19.38
2023-05-21T22:43:33.461Z,19.31
2023-05-21T22:46:00.199Z,19.26
2023-05-21T22:48:26.751Z,19.22
2023-05-21T22:50:53.290Z,19.19
2023-05-21T22:53:20.045Z,19.15
2023-05-21T22:55:46.599Z,19.11
2023-05-21T22:58:13.110Z,19.07
2023-05-21T23:00:39.882Z,19.05
2023-05-21T23:03:06.643Z,19.02
2023-05-21T23:05:33.424Z,18.95
2023-05-21T23:08:00.128Z,18.87
2023-05-21T23:10:26.682Z,18.83
2023-05-21T23:12:53.204Z,18.81
2023-05-21T23:15:19.814Z,18.77
2023-05-21T23:17:46.297Z,18.66
2023-05-21T23:20:12.889Z,18.58
2023-05-21T23:22:39.429Z,18.53
2023-05-21T23:25:06.548Z,18.50
2023-05-21T23:27:33.053Z,18.45
2023-05-21T23:30:00.094Z,18.39
2023-05-21T23:32:26.670Z,18.34
2023-05-21T23:34:53.190Z,18.31
2023-05-21T23:37:19.786Z,18.27
2023-05-21T23:39:46.305Z,18.20
2023-05-21T23:42:12.882Z,18.12
2023-05-21T23:44:39.375Z,18.07
2023-05-21T23:47:05.949Z,18.04
2023-05-21T23:49:32.462Z,18.01
2023-05-21T23:51:59.016Z,17.97
2023-05-21T23:54:25.536Z,17.89
2023-05-21T23:56:52.110Z,17.83
2023-05-21T23:59:18.751Z,17.81
